createdAt,value
2019-05-05T00:02:47.667Z,2.00
2019-05-05T00:05:29.030Z,2.00
2019-05-05T00:07:59.806Z,2.00
2019-05-05T00:10:48.041Z,2.00
2019-05-05T00:13:28.162Z,1.90
2019-05-05T00:16:24.556Z,1.90
2019-05-05T00:18:56.930Z,1.90
2019-05-05T00:21:27.835Z,1.90
2019-05-05T00:23:58.468Z,1.90
2019-05-05T00:26:29.094Z,1.90
2019-05-05T00:28:59.770Z,2.00
2019-05-05T00:31:31.324Z,1.90
2019-05-05T00:34:01.954Z,1.90
2019-05-05T00:36:32.741Z,1.90
2019-05-05T00:39:04.334Z,1.90
2019-05-05T00:41:35.013Z,1.90
2019-05-05T00:44:05.843Z,1.90
2019-05-05T00:46:55.049Z,1.90
2019-05-05T00:49:27.274Z,1.90
2019-05-05T00:51:58.216Z,1.80
2019-05-05T00:54:29.032Z,1.70
2019-05-05T00:57:00.108Z,1.70
2019-05-05T00:59:31.448Z,1.70
2019-05-05T01:02:12.156Z,1.70
2019-05-05T01:04:51.470Z,1.60
2019-05-05T01:07:22.207Z,1.60
2019-05-05T01:09:54.281Z,1.50
2019-05-05T01:12:26.444Z,1.60
2019-05-05T01:14:57.087Z,1.70
2019-05-05T01:17:27.739Z,1.70
2019-05-05T01:20:04.054Z,1.70
2019-05-05T01:22:34.079Z,1.70
2019-05-05T01:25:05.373Z,1.70
2019-05-05T01:27:36.297Z,1.60
2019-05-05T01:30:11.143Z,1.50
2019-05-05T01:32:44.666Z,1.60
2019-05-05T01:35:15.735Z,1.60
2019-05-05T01:38:01.122Z,1.60
2019-05-05T01:40:44.742Z,1.50
2019-05-05T01:43:15.683Z,1.40
2019-05-05T01:45:46.410Z,1.50
2019-05-05T01:48:17.717Z,1.40
2019-05-05T01:50:48.471Z,1.40
2019-05-05T01:53:19.627Z,1.40
2019-05-05T01:55:50.335Z,1.40
2019-05-05T01:58:21.550Z,1.40
2019-05-05T02:00:52.199Z,1.40
2019-05-05T02:03:24.360Z,1.40
2019-05-05T02:05:55.301Z,1.40
2019-05-05T02:08:25.987Z,1.50
2019-05-05T02:10:56.657Z,1.40
2019-05-05T02:13:27.404Z,1.40
2019-05-05T02:15:58.071Z,1.40
2019-05-05T02:18:28.689Z,1.40
2019-05-05T02:21:09.902Z,1.50
2019-05-05T02:23:40.857Z,1.50
2019-05-05T02:26:11.725Z,1.50
2019-05-05T02:28:50.119Z,1.50
2019-05-05T02:31:45.399Z,1.50
2019-05-05T02:34:16.465Z,1.50
2019-05-05T02:36:47.301Z,1.50
2019-05-05T02:39:18.041Z,1.50
2019-05-05T02:41:49.035Z,1.50
2019-05-05T02:44:20.277Z,1.50
2019-05-05T02:47:01.223Z,1.50
2019-05-05T02:49:35.166Z,1.60
2019-05-05T02:52:06.826Z,1.50
2019-05-05T02:54:41.572Z,1.50
2019-05-05T02:57:14.925Z,1.50
2019-05-05T02:59:57.737Z,1.50
2019-05-05T03:02:31.578Z,1.40
2019-05-05T03:05:04.216Z,1.40
2019-05-05T03:07:38.207Z,1.40
2019-05-05T03:10:09.886Z,1.30
2019-05-05T03:12:43.894Z,1.30
2019-05-05T03:15:25.629Z,1.30
2019-05-05T03:17:56.453Z,1.20
2019-05-05T03:20:27.254Z,1.20
2019-05-05T03:22:57.922Z,1.20
2019-05-05T03:25:28.602Z,1.10
2019-05-05T03:27:59.250Z,1.10
2019-05-05T03:30:30.335Z,1.10
2019-05-05T03:33:01.124Z,1.10
2019-05-05T03:35:31.966Z,1.10
2019-05-05T03:38:03.871Z,1.10
2019-05-05T03:40:37.414Z,1.10
2019-05-05T03:43:14.585Z,1.10
2019-05-05T03:45:56.508Z,1.10
2019-05-05T03:48:27.213Z,1.10
2019-05-05T03:50:58.799Z,1.20
2019-05-05T03:53:30.258Z,1.20
2019-05-05T03:56:01.185Z,1.20
2019-05-05T03:58:34.318Z,1.20
2019-05-05T04:01:37.463Z,1.30
2019-05-05T04:04:29.158Z,1.30
2019-05-05T04:06:59.925Z,1.30
2019-05-05T04:09:30.556Z,1.30
2019-05-05T04:12:01.237Z,1.40
2019-05-05T04:14:31.882Z,1.40
2019-05-05T04:17:24.541Z,1.50
2019-05-05T04:19:56.277Z,1.60
2019-05-05T04:22:26.981Z,1.70
2019-05-05T04:25:04.721Z,1.80
2019-05-05T04:27:35.580Z,1.90
2019-05-05T04:30:06.353Z,2.10
2019-05-05T04:32:37.008Z,2.20
2019-05-05T04:35:07.704Z,2.30
2019-05-05T04:37:38.867Z,2.40
2019-05-05T04:40:09.840Z,2.50
2019-05-05T04:42:41.204Z,2.70
2019-05-05T04:45:11.950Z,2.80
2019-05-05T04:47:45.294Z,3.00
2019-05-05T04:50:38.126Z,3.10
2019-05-05T04:53:13.589Z,3.20
2019-05-05T04:55:44.433Z,3.40
2019-05-05T04:58:15.103Z,3.50
2019-05-05T05:00:46.089Z,3.60
2019-05-05T05:03:35.569Z,3.80
2019-05-05T05:06:14.539Z,3.80
2019-05-05T05:08:44.970Z,3.90
2019-05-05T05:11:15.590Z,3.90
2019-05-05T05:13:46.268Z,4.00
2019-05-05T05:16:16.918Z,4.00
2019-05-05T05:18:47.669Z,4.10
2019-05-05T05:21:18.284Z,4.20
2019-05-05T05:23:49.052Z,4.40
2019-05-05T05:26:19.679Z,4.60
2019-05-05T05:28:50.391Z,4.80
2019-05-05T05:31:21.145Z,4.90
2019-05-05T05:33:51.791Z,4.80
2019-05-05T05:36:24.656Z,4.90
2019-05-05T05:38:57.565Z,5.10
2019-05-05T05:41:47.612Z,5.10
2019-05-05T05:44:44.463Z,5.20
2019-05-05T05:47:26.364Z,5.40
2019-05-05T05:50:04.017Z,5.50
2019-05-05T05:52:36.503Z,5.70
2019-05-05T05:55:07.483Z,5.90
2019-05-05T05:57:38.479Z,6.20
2019-05-05T06:00:09.543Z,6.30
2019-05-05T06:02:40.354Z,6.40
2019-05-05T06:05:11.300Z,6.50
2019-05-05T06:07:44.083Z,6.70
2019-05-05T06:10:22.320Z,6.80
2019-05-05T06:12:47.244Z,6.70
2019-05-05T06:15:20.710Z,6.90
2019-05-05T06:17:51.490Z,6.80
2019-05-05T06:20:23.827Z,6.60
2019-05-05T06:22:55.021Z,6.60
2019-05-05T06:25:26.849Z,6.50
2019-05-05T06:27:57.740Z,6.30
2019-05-05T06:30:28.940Z,6.40
2019-05-05T06:33:00.339Z,6.40
2019-05-05T06:35:33.652Z,6.50
2019-05-05T06:38:04.832Z,6.80
2019-05-05T06:40:57.323Z,6.80
2019-05-05T06:43:40.989Z,6.90
2019-05-05T06:46:14.626Z,6.90
2019-05-05T06:48:47.385Z,7.30
2019-05-05T06:51:18.045Z,7.50
2019-05-05T06:53:48.691Z,7.70
2019-05-05T06:56:19.427Z,7.80
2019-05-05T06:58:50.065Z,8.10
2019-05-05T07:01:21.409Z,8.00
2019-05-05T07:03:54.089Z,8.00
2019-05-05T07:06:25.428Z,8.20
2019-05-05T07:08:56.197Z,8.50
2019-05-05T07:11:27.700Z,8.70
2019-05-05T07:13:58.375Z,9.00
2019-05-05T07:16:29.320Z,8.90
2019-05-05T07:19:01.208Z,9.10
2019-05-05T07:21:34.158Z,9.30
2019-05-05T07:24:04.610Z,9.30
2019-05-05T07:26:35.258Z,9.30
2019-05-05T07:29:06.058Z,9.60
2019-05-05T07:31:37.161Z,9.80
2019-05-05T07:34:08.178Z,9.70
2019-05-05T07:36:46.890Z,9.70
2019-05-05T07:39:18.264Z,9.70
2019-05-05T07:41:49.003Z,9.60
2019-05-05T07:44:26.619Z,9.70
2019-05-05T07:46:54.207Z,9.80
2019-05-05T07:49:25.122Z,9.60
2019-05-05T07:51:55.999Z,9.80
2019-05-05T07:54:26.633Z,9.60
2019-05-05T07:56:59.515Z,9.70
2019-05-05T07:59:34.022Z,9.70
2019-05-05T08:02:04.842Z,9.80
2019-05-05T08:04:36.116Z,10.10
2019-05-05T08:07:06.763Z,10.60
2019-05-05T08:09:37.596Z,10.80
2019-05-05T08:12:08.345Z,10.60
2019-05-05T08:14:39.016Z,10.60
2019-05-05T08:17:25.462Z,10.50
2019-05-05T08:20:03.984Z,10.60
2019-05-05T08:22:35.762Z,11.30
2019-05-05T08:25:14.352Z,11.40
2019-05-05T08:28:12.147Z,11.00
2019-05-05T08:31:10.506Z,11.10
2019-05-05T08:33:44.071Z,11.30
2019-05-05T08:36:14.745Z,11.10
2019-05-05T08:38:45.571Z,10.90
2019-05-05T08:41:16.250Z,11.20
2019-05-05T08:43:46.932Z,11.40
2019-05-05T08:46:17.592Z,11.70
2019-05-05T08:48:49.656Z,12.20
2019-05-05T08:51:20.829Z,12.00
2019-05-05T08:53:54.548Z,11.60
2019-05-05T08:56:25.661Z,11.60
2019-05-05T08:58:57.076Z,11.50
2019-05-05T09:01:28.403Z,11.50
2019-05-05T09:03:59.150Z,11.60
2019-05-05T09:06:29.832Z,11.80
2019-05-05T09:09:03.850Z,11.70
2019-05-05T09:11:36.540Z,11.10
2019-05-05T09:14:08.594Z,11.10
2019-05-05T09:16:40.484Z,11.10
2019-05-05T09:19:15.014Z,11.20
2019-05-05T09:21:45.895Z,11.40
2019-05-05T09:24:38.151Z,11.50
2019-05-05T09:27:36.257Z,11.60
2019-05-05T09:30:08.601Z,11.60
2019-05-05T09:32:39.774Z,11.80
2019-05-05T09:35:10.772Z,12.40
2019-05-05T09:37:44.331Z,12.20
2019-05-05T09:40:17.588Z,12.30
2019-05-05T09:42:48.364Z,12.20
2019-05-05T09:45:24.345Z,11.80
2019-05-05T09:47:56.012Z,11.70
2019-05-05T09:50:27.384Z,11.90
2019-05-05T09:52:58.223Z,12.20
2019-05-05T09:55:29.204Z,12.50
2019-05-05T09:58:01.066Z,13.00
2019-05-05T10:00:33.765Z,12.60
2019-05-05T10:03:04.527Z,12.10
2019-05-05T10:05:35.212Z,12.00
2019-05-05T10:08:08.005Z,12.00
2019-05-05T10:10:39.851Z,12.00
2019-05-05T10:13:10.567Z,11.80
2019-05-05T10:15:44.418Z,11.80
2019-05-05T10:18:15.348Z,12.10
2019-05-05T10:20:46.151Z,12.40
2019-05-05T10:23:16.962Z,13.00
2019-05-05T10:25:49.674Z,13.30
2019-05-05T10:28:20.441Z,13.10
2019-05-05T10:30:53.865Z,12.90
2019-05-05T10:33:25.276Z,12.70
2019-05-05T10:35:56.034Z,12.10
2019-05-05T10:38:26.858Z,12.10
2019-05-05T10:40:57.530Z,12.10
2019-05-05T10:43:29.587Z,12.40
2019-05-05T10:46:00.273Z,12.50
2019-05-05T10:48:31.199Z,12.10
2019-05-05T10:51:04.327Z,12.10
2019-05-05T10:53:35.106Z,12.70
2019-05-05T10:56:06.003Z,13.40
2019-05-05T10:58:36.942Z,14.00
2019-05-05T11:01:07.753Z,13.60
2019-05-05T11:03:40.230Z,13.30
2019-05-05T11:06:13.700Z,13.20
2019-05-05T11:08:45.447Z,13.30
2019-05-05T11:11:16.161Z,12.70
2019-05-05T11:13:48.254Z,12.80
2019-05-05T11:16:19.107Z,12.80
2019-05-05T11:18:49.945Z,12.80
2019-05-05T11:21:21.129Z,12.80
2019-05-05T11:23:53.916Z,13.00
2019-05-05T11:26:24.834Z,13.40
2019-05-05T11:28:55.674Z,13.30
2019-05-05T11:31:26.625Z,13.30
2019-05-05T11:34:14.539Z,13.20
2019-05-05T11:36:57.488Z,12.90
2019-05-05T11:39:28.188Z,12.90
2019-05-05T11:41:58.904Z,13.00
2019-05-05T11:44:29.631Z,13.00
2019-05-05T11:47:00.452Z,13.20
2019-05-05T11:49:33.570Z,13.90
2019-05-05T11:52:04.614Z,14.50
2019-05-05T11:54:35.572Z,15.00
2019-05-05T11:57:06.274Z,15.00
2019-05-05T11:59:36.964Z,14.50
2019-05-05T12:02:07.921Z,14.40
2019-05-05T12:04:39.714Z,14.10
2019-05-05T12:07:10.502Z,13.80
2019-05-05T12:09:54.737Z,13.70
2019-05-05T12:12:25.189Z,13.80
2019-05-05T12:14:55.991Z,13.70
2019-05-05T12:17:37.844Z,13.40
2019-05-05T12:20:13.525Z,13.40
2019-05-05T12:22:44.870Z,13.60
2019-05-05T12:25:34.870Z,13.70
2019-05-05T12:28:14.742Z,14.00
2019-05-05T12:30:45.947Z,14.10
2019-05-05T12:33:16.720Z,14.00
2019-05-05T12:35:47.877Z,14.20
2019-05-05T12:38:18.530Z,14.80
2019-05-05T12:40:49.957Z,15.10
2019-05-05T12:43:20.604Z,15.20
2019-05-05T12:45:57.295Z,15.00
2019-05-05T12:48:34.372Z,14.40
2019-05-05T12:51:06.126Z,14.30
2019-05-05T12:53:36.905Z,14.20
2019-05-05T12:56:08.060Z,14.10
2019-05-05T12:58:39.629Z,14.10
2019-05-05T13:01:33.583Z,13.60
2019-05-05T13:04:05.777Z,13.70
2019-05-05T13:06:40.755Z,13.60
2019-05-05T13:09:13.555Z,13.80
2019-05-05T13:11:44.585Z,14.10
2019-05-05T13:14:15.642Z,14.40
2019-05-05T13:16:52.918Z,14.70
2019-05-05T13:19:28.383Z,15.00
2019-05-05T13:22:16.575Z,14.90
2019-05-05T13:25:04.724Z,14.20
2019-05-05T13:27:38.611Z,13.60
2019-05-05T13:30:11.344Z,13.40
2019-05-05T13:32:44.065Z,13.50
2019-05-05T13:35:16.012Z,13.30
2019-05-05T13:37:48.406Z,13.20
2019-05-05T13:40:19.486Z,13.30
2019-05-05T13:42:50.505Z,13.30
2019-05-05T13:45:43.615Z,13.30
2019-05-05T13:48:14.383Z,13.20
2019-05-05T13:50:49.186Z,13.10
2019-05-05T13:53:21.099Z,13.20
2019-05-05T13:55:55.550Z,13.30
2019-05-05T13:58:24.960Z,13.50
2019-05-05T14:00:56.772Z,13.80
2019-05-05T14:03:27.989Z,13.90
2019-05-05T14:05:58.738Z,13.70
2019-05-05T14:08:35.598Z,13.60
2019-05-05T14:11:03.737Z,13.30
2019-05-05T14:13:34.460Z,13.40
2019-05-05T14:16:06.302Z,13.50
2019-05-05T14:18:37.231Z,13.60
2019-05-05T14:21:07.901Z,13.80
2019-05-05T14:23:58.488Z,14.40
2019-05-05T14:26:37.994Z,14.60
2019-05-05T14:29:11.027Z,15.10
2019-05-05T14:31:44.319Z,15.50
2019-05-05T14:34:23.999Z,15.50
2019-05-05T14:37:14.170Z,15.70
2019-05-05T14:39:45.204Z,16.40
2019-05-05T14:42:15.995Z,16.50
2019-05-05T14:44:46.735Z,16.10
2019-05-05T14:47:17.391Z,15.90
2019-05-05T14:49:48.209Z,15.60
2019-05-05T14:52:18.995Z,15.40
2019-05-05T14:54:49.736Z,14.90
2019-05-05T14:57:24.516Z,14.60
2019-05-05T14:59:56.359Z,14.20
2019-05-05T15:02:27.392Z,14.10
2019-05-05T15:05:00.827Z,13.90
2019-05-05T15:07:56.702Z,14.00
2019-05-05T15:10:45.045Z,14.00
2019-05-05T15:13:15.742Z,14.20
2019-05-05T15:15:46.613Z,14.50
2019-05-05T15:18:17.297Z,15.00
2019-05-05T15:20:48.080Z,15.10
2019-05-05T15:23:18.937Z,15.30
2019-05-05T15:25:49.622Z,15.60
2019-05-05T15:28:20.257Z,15.80
2019-05-05T15:30:50.960Z,15.30
2019-05-05T15:33:21.598Z,14.80
2019-05-05T15:35:53.897Z,14.40
2019-05-05T15:38:24.754Z,14.20
2019-05-05T15:40:56.247Z,14.00
2019-05-05T15:43:26.963Z,13.90
2019-05-05T15:45:58.416Z,13.70
2019-05-05T15:48:29.092Z,13.50
2019-05-05T15:50:59.847Z,13.40
2019-05-05T15:53:30.739Z,13.40
2019-05-05T15:56:01.535Z,13.20
2019-05-05T15:58:34.090Z,13.10
2019-05-05T16:01:04.816Z,12.90
2019-05-05T16:03:36.530Z,12.80
2019-05-05T16:06:07.208Z,12.90
2019-05-05T16:08:38.354Z,12.90
2019-05-05T16:11:10.093Z,12.80
2019-05-05T16:13:41.643Z,13.00
2019-05-05T16:16:34.311Z,13.20
2019-05-05T16:19:13.895Z,13.10
2019-05-05T16:21:54.382Z,13.10
2019-05-05T16:24:28.200Z,13.00
2019-05-05T16:26:59.924Z,12.80
2019-05-05T16:29:30.637Z,12.70
2019-05-05T16:32:04.187Z,12.60
2019-05-05T16:34:34.637Z,12.40
2019-05-05T16:37:05.473Z,12.30
2019-05-05T16:39:36.304Z,12.10
2019-05-05T16:42:08.002Z,12.00
2019-05-05T16:44:39.816Z,11.90
2019-05-05T16:47:10.604Z,11.80
2019-05-05T16:49:41.737Z,11.70
2019-05-05T16:52:19.130Z,11.60
2019-05-05T16:55:18.114Z,11.60
2019-05-05T16:57:48.946Z,11.60
2019-05-05T17:00:25.686Z,11.50
2019-05-05T17:02:55.846Z,11.50
2019-05-05T17:05:27.608Z,11.50
2019-05-05T17:08:01.600Z,11.60
2019-05-05T17:10:34.227Z,11.60
2019-05-05T17:13:18.213Z,11.50
2019-05-05T17:16:00.679Z,11.50
2019-05-05T17:18:36.491Z,11.40
2019-05-05T17:21:15.188Z,11.40
2019-05-05T17:23:45.974Z,11.30
2019-05-05T17:26:16.680Z,11.30
2019-05-05T17:28:47.562Z,11.20
2019-05-05T17:31:18.287Z,11.10
2019-05-05T17:33:48.969Z,11.10
2019-05-05T17:36:19.791Z,11.00
2019-05-05T17:38:50.662Z,11.00
2019-05-05T17:41:38.714Z,11.00
2019-05-05T17:44:26.236Z,11.00
2019-05-05T17:47:05.406Z,10.90
2019-05-05T17:49:38.285Z,10.90
2019-05-05T17:52:34.349Z,10.90
2019-05-05T17:55:24.260Z,10.80
2019-05-05T17:58:01.546Z,10.70
2019-05-05T18:00:29.972Z,10.60
2019-05-05T18:03:04.184Z,10.50
2019-05-05T18:05:54.320Z,10.40
2019-05-05T18:08:46.618Z,10.30
2019-05-05T18:11:29.544Z,10.10
2019-05-05T18:14:04.886Z,10.00
2019-05-05T18:16:35.610Z,9.80
2019-05-05T18:19:06.417Z,9.70
2019-05-05T18:21:37.462Z,9.60
2019-05-05T18:24:08.351Z,9.50
2019-05-05T18:26:43.569Z,9.30
2019-05-05T18:29:14.591Z,9.30
2019-05-05T18:31:45.598Z,9.20
2019-05-05T18:34:16.392Z,9.10
2019-05-05T18:36:48.047Z,9.00
2019-05-05T18:39:21.799Z,8.90
2019-05-05T18:42:13.944Z,8.90
2019-05-05T18:44:50.618Z,8.80
2019-05-05T18:47:26.146Z,8.80
2019-05-05T18:49:56.986Z,8.60
2019-05-05T18:52:27.660Z,8.60
2019-05-05T18:54:58.415Z,8.60
2019-05-05T18:57:29.069Z,8.50
2019-05-05T18:59:59.831Z,8.50
2019-05-05T19:02:53.577Z,8.40
2019-05-05T19:05:54.928Z,8.30
2019-05-05T19:08:29.648Z,8.30
2019-05-05T19:11:00.358Z,8.20
2019-05-05T19:13:38.891Z,8.10
2019-05-05T19:16:10.209Z,8.10
2019-05-05T19:18:42.028Z,8.00
2019-05-05T19:21:38.991Z,7.90
2019-05-05T19:24:14.467Z,7.80
2019-05-05T19:26:45.304Z,7.70
2019-05-05T19:29:16.291Z,7.60
2019-05-05T19:31:47.473Z,7.50
2019-05-05T19:34:18.188Z,7.40
2019-05-05T19:36:48.899Z,7.40
2019-05-05T19:39:19.802Z,7.30
2019-05-05T19:41:50.575Z,7.20
2019-05-05T19:44:21.290Z,7.10
2019-05-05T19:47:00.316Z,7.00
2019-05-05T19:49:31.108Z,7.00
2019-05-05T19:52:05.661Z,6.90
2019-05-05T19:54:36.329Z,6.80
2019-05-05T19:57:06.930Z,6.70
2019-05-05T19:59:37.645Z,6.60
2019-05-05T20:02:08.606Z,6.60
2019-05-05T20:04:39.821Z,6.60
2019-05-05T20:07:10.565Z,6.50
2019-05-05T20:09:43.556Z,6.50
2019-05-05T20:12:14.837Z,6.50
2019-05-05T20:14:46.973Z,6.40
2019-05-05T20:17:30.073Z,6.40
2019-05-05T20:20:04.313Z,6.30
2019-05-05T20:22:35.828Z,6.20
2019-05-05T20:25:07.188Z,6.20
2019-05-05T20:27:38.370Z,6.10
2019-05-05T20:30:09.387Z,6.10
2019-05-05T20:32:56.449Z,6.00
2019-05-05T20:35:46.373Z,5.90
2019-05-05T20:38:39.751Z,5.80
2019-05-05T20:41:16.760Z,5.70
2019-05-05T20:43:47.434Z,5.60
2019-05-05T20:46:19.045Z,5.60
2019-05-05T20:48:49.850Z,5.50
2019-05-05T20:51:20.639Z,5.50
2019-05-05T20:53:51.345Z,5.40
2019-05-05T20:56:22.115Z,5.40
2019-05-05T20:58:54.736Z,5.30
2019-05-05T21:01:26.675Z,5.30
2019-05-05T21:03:57.450Z,5.30
2019-05-05T21:06:28.985Z,5.20
2019-05-05T21:08:59.720Z,5.20
2019-05-05T21:11:30.801Z,5.10
2019-05-05T21:14:03.759Z,5.10
2019-05-05T21:16:34.327Z,5.10
2019-05-05T21:19:05.142Z,5.00
2019-05-05T21:21:37.608Z,5.00
2019-05-05T21:24:10.272Z,4.90
2019-05-05T21:26:50.952Z,4.80
2019-05-05T21:29:23.608Z,4.70
2019-05-05T21:31:54.969Z,4.60
2019-05-05T21:34:25.671Z,4.60
2019-05-05T21:36:57.428Z,4.60
2019-05-05T21:39:28.693Z,4.60
2019-05-05T21:41:59.313Z,4.50
2019-05-05T21:44:30.051Z,4.40
2019-05-05T21:47:01.318Z,4.40
2019-05-05T21:49:33.799Z,4.30
2019-05-05T21:52:23.884Z,4.30
2019-05-05T21:54:58.657Z,4.20
2019-05-05T21:57:46.887Z,4.20
2019-05-05T22:00:39.717Z,4.20
2019-05-05T22:03:11.578Z,4.10
2019-05-05T22:05:42.250Z,4.00
2019-05-05T22:08:14.365Z,4.10
2019-05-05T22:10:45.139Z,4.00
2019-05-05T22:13:15.788Z,4.00
2019-05-05T22:15:46.502Z,3.90
2019-05-05T22:18:17.141Z,4.00
2019-05-05T22:20:54.622Z,4.00
2019-05-05T22:23:25.337Z,3.90
2019-05-05T22:25:56.060Z,3.80
2019-05-05T22:28:26.695Z,3.80
2019-05-05T22:30:57.575Z,3.80
2019-05-05T22:33:28.204Z,3.70
2019-05-05T22:35:58.899Z,3.70
2019-05-05T22:38:29.584Z,3.80
2019-05-05T22:41:00.289Z,3.80
2019-05-05T22:43:30.976Z,3.80
2019-05-05T22:46:03.557Z,3.80
2019-05-05T22:48:34.623Z,3.70
2019-05-05T22:51:05.427Z,3.70
2019-05-05T22:53:36.088Z,3.60
2019-05-05T22:56:06.785Z,3.60
2019-05-05T22:58:37.672Z,3.60
2019-05-05T23:01:08.454Z,3.70
2019-05-05T23:03:46.968Z,3.70
2019-05-05T23:06:20.444Z,3.70
2019-05-05T23:08:51.080Z,3.70
2019-05-05T23:11:23.907Z,3.60
2019-05-05T23:14:16.133Z,3.50
2019-05-05T23:16:48.836Z,3.50
2019-05-05T23:19:20.087Z,3.50
2019-05-05T23:22:09.606Z,3.50
2019-05-05T23:24:54.904Z,3.40
2019-05-05T23:27:44.074Z,3.40
2019-05-05T23:30:15.982Z,3.40
2019-05-05T23:32:47.679Z,3.50
2019-05-05T23:35:19.747Z,3.60
2019-05-05T23:37:50.463Z,3.70
2019-05-05T23:40:27.071Z,3.80
2019-05-05T23:42:57.781Z,3.80
2019-05-05T23:45:29.213Z,4.00
2019-05-05T23:47:59.887Z,4.10
2019-05-05T23:50:30.534Z,4.30
2019-05-05T23:53:01.187Z,4.50
2019-05-05T23:55:31.815Z,4.50
2019-05-05T23:58:03.783Z,4.60
